createdAt,value
2018-07-19T00:01:22.094Z,1.83
2018-07-19T00:03:50.534Z,2.30
2018-07-19T00:06:18.860Z,2.63
2018-07-19T00:08:47.128Z,1.63
2018-07-19T00:11:15.440Z,1.60
2018-07-19T00:13:43.740Z,1.90
2018-07-19T00:16:12.046Z,1.93
2018-07-19T00:18:40.330Z,1.60
2018-07-19T00:21:08.588Z,2.00
2018-07-19T00:23:36.836Z,1.73
2018-07-19T00:26:05.210Z,1.90
2018-07-19T00:28:33.490Z,2.00
2018-07-19T00:31:01.717Z,1.50
2018-07-19T00:33:29.947Z,1.73
2018-07-19T00:35:59.278Z,1.97
2018-07-19T00:38:27.512Z,1.97
2018-07-19T00:40:55.846Z,1.80
2018-07-19T00:43:24.115Z,2.17
2018-07-19T00:45:52.404Z,1.80
2018-07-19T00:48:20.703Z,1.67
2018-07-19T00:50:48.947Z,2.13
2018-07-19T00:53:17.223Z,2.00
2018-07-19T00:55:45.580Z,1.90
2018-07-19T00:58:13.846Z,1.97
2018-07-19T01:00:42.086Z,1.87
2018-07-19T01:03:10.307Z,1.67
2018-07-19T01:05:39.674Z,1.87
2018-07-19T01:08:07.959Z,1.73
2018-07-19T01:10:36.259Z,1.80
2018-07-19T01:13:04.743Z,1.80
2018-07-19T01:15:33.209Z,1.60
2018-07-19T01:18:01.453Z,1.87
2018-07-19T01:20:30.295Z,1.70
2018-07-19T01:22:58.580Z,1.73
2018-07-19T01:25:26.875Z,1.97
2018-07-19T01:27:55.201Z,1.97
2018-07-19T01:30:23.465Z,2.30
2018-07-19T01:32:51.758Z,1.77
2018-07-19T01:35:20.159Z,2.13
2018-07-19T01:37:48.456Z,1.57
2018-07-19T01:40:16.677Z,2.00
2018-07-19T01:42:45.659Z,2.07
2018-07-19T01:45:14.455Z,2.53
2018-07-19T01:47:42.824Z,1.93
2018-07-19T01:50:11.712Z,2.13
2018-07-19T01:52:40.038Z,2.20
2018-07-19T01:55:08.932Z,2.10
2018-07-19T01:57:37.237Z,1.83
2018-07-19T02:00:05.905Z,2.10
2018-07-19T02:02:34.179Z,1.77
2018-07-19T02:05:02.659Z,2.10
2018-07-19T02:07:30.667Z,2.43
2018-07-19T02:09:58.902Z,1.97
2018-07-19T02:12:27.220Z,2.30
2018-07-19T02:14:55.604Z,2.17
2018-07-19T02:17:23.938Z,2.23
2018-07-19T02:19:52.172Z,2.10
2018-07-19T02:22:20.417Z,2.07
2018-07-19T02:24:48.842Z,2.17
2018-07-19T02:27:17.122Z,1.90
2018-07-19T02:29:45.372Z,1.80
2018-07-19T02:32:13.653Z,2.22
2018-07-19T02:34:42.713Z,1.93
2018-07-19T02:37:11.037Z,2.00
2018-07-19T02:39:39.495Z,2.07
2018-07-19T02:42:07.766Z,1.87
2018-07-19T02:44:36.184Z,1.77
2018-07-19T02:47:04.416Z,1.93
2018-07-19T02:49:32.631Z,2.40
2018-07-19T02:52:00.868Z,2.33
2018-07-19T02:54:29.172Z,2.20
2018-07-19T02:56:57.371Z,2.23
2018-07-19T02:59:25.614Z,2.30
2018-07-19T03:01:53.997Z,1.83
2018-07-19T03:04:22.432Z,1.83
2018-07-19T03:06:50.694Z,1.97
2018-07-19T03:09:18.927Z,1.80
2018-07-19T03:11:47.145Z,2.00
2018-07-19T03:14:15.504Z,2.00
2018-07-19T03:16:43.806Z,1.63
2018-07-19T03:19:12.162Z,2.27
2018-07-19T03:21:40.407Z,1.63
2018-07-19T03:24:08.561Z,2.10
2018-07-19T03:26:36.918Z,1.50
2018-07-19T03:29:25.394Z,2.07
2018-07-19T03:31:53.701Z,2.00
2018-07-19T03:34:22.032Z,2.60
2018-07-19T03:36:50.426Z,1.73
2018-07-19T03:39:18.723Z,1.90
2018-07-19T03:41:46.735Z,1.90
2018-07-19T03:44:15.066Z,2.10
2018-07-19T03:46:43.304Z,1.97
2018-07-19T03:49:11.484Z,2.10
2018-07-19T03:51:39.779Z,2.17
2018-07-19T03:54:08.178Z,2.10
2018-07-19T03:56:36.415Z,2.30
2018-07-19T03:59:04.626Z,2.07
2018-07-19T04:01:32.629Z,2.07
2018-07-19T04:04:01.086Z,2.10
2018-07-19T04:06:29.346Z,2.53
2018-07-19T04:08:57.560Z,1.97
2018-07-19T04:11:25.800Z,2.37
2018-07-19T04:13:54.259Z,2.43
2018-07-19T04:16:22.559Z,2.20
2018-07-19T04:18:50.794Z,2.43
2018-07-19T04:21:19.008Z,2.20
2018-07-19T04:24:05.539Z,2.20
2018-07-19T04:26:33.855Z,2.30
2018-07-19T04:29:02.069Z,2.20
2018-07-19T04:31:30.304Z,2.27
2018-07-19T04:33:58.587Z,2.20
2018-07-19T04:36:26.780Z,2.37
2018-07-19T04:38:55.053Z,2.50
2018-07-19T04:41:23.302Z,2.47
2018-07-19T04:43:51.671Z,2.20
2018-07-19T04:46:20.071Z,2.47
2018-07-19T04:48:48.297Z,2.80
2018-07-19T04:51:16.538Z,2.33
2018-07-19T04:53:44.778Z,3.47
2018-07-19T04:56:13.003Z,2.60
2018-07-19T04:58:41.769Z,2.80
2018-07-19T05:01:10.041Z,2.50
2018-07-19T05:03:38.271Z,2.70
2018-07-19T05:06:06.562Z,2.27
2018-07-19T05:08:34.795Z,2.77
2018-07-19T05:11:02.987Z,2.70
2018-07-19T05:13:31.213Z,2.40
2018-07-19T05:15:59.467Z,2.30
2018-07-19T05:18:27.680Z,2.60
2018-07-19T05:20:55.886Z,2.90
2018-07-19T05:23:24.051Z,2.40
2018-07-19T05:25:52.328Z,3.07
2018-07-19T05:28:20.540Z,2.47
2018-07-19T05:30:48.781Z,2.37
2018-07-19T05:33:17.067Z,2.40
2018-07-19T05:35:45.492Z,2.60
2018-07-19T05:38:13.726Z,2.63
2018-07-19T05:40:41.989Z,2.47
2018-07-19T05:43:10.190Z,3.17
2018-07-19T05:45:38.604Z,2.70
2018-07-19T05:48:06.826Z,2.90
2018-07-19T05:53:09.791Z,3.07
2018-07-19T05:55:38.256Z,2.73
2018-07-19T05:58:06.464Z,2.73
2018-07-19T06:00:34.356Z,2.83
2018-07-19T06:06:03.732Z,2.47
2018-07-19T06:08:32.634Z,2.97
2018-07-19T06:11:01.036Z,2.83
2018-07-19T06:13:29.269Z,2.90
2018-07-19T06:15:57.607Z,2.83
2018-07-19T06:18:25.847Z,2.90
2018-07-19T06:20:54.105Z,2.70
2018-07-19T06:23:22.333Z,2.70
2018-07-19T06:25:50.469Z,2.60
2018-07-19T06:28:18.749Z,3.07
2018-07-19T06:30:46.994Z,2.80
2018-07-19T06:33:15.174Z,2.80
2018-07-19T06:35:43.763Z,3.00
2018-07-19T06:38:11.987Z,3.20
2018-07-19T06:40:40.235Z,3.00
2018-07-19T06:43:08.523Z,3.40
2018-07-19T06:45:37.729Z,3.50
2018-07-19T06:48:05.990Z,3.20
2018-07-19T06:50:34.258Z,3.10
2018-07-19T06:53:02.516Z,3.17
2018-07-19T06:55:30.857Z,2.93
2018-07-19T06:57:59.015Z,2.90
2018-07-19T07:00:27.188Z,3.10
2018-07-19T07:02:55.364Z,3.57
2018-07-19T07:05:24.666Z,3.50
2018-07-19T07:07:52.656Z,2.67
2018-07-19T07:10:21.147Z,3.00
2018-07-19T07:12:49.368Z,2.90
2018-07-19T07:15:18.661Z,2.93
2018-07-19T07:17:46.923Z,2.80
2018-07-19T07:20:15.145Z,2.90
2018-07-19T07:22:43.296Z,3.20
2018-07-19T07:25:11.577Z,2.80
2018-07-19T07:27:39.783Z,3.03
2018-07-19T07:30:08.031Z,3.50
2018-07-19T07:32:36.249Z,3.60
2018-07-19T07:35:05.410Z,3.00
2018-07-19T07:37:33.608Z,3.10
2018-07-19T07:40:01.858Z,3.37
2018-07-19T07:42:30.044Z,3.00
2018-07-19T07:44:58.334Z,3.03
2018-07-19T07:47:26.493Z,3.40
2018-07-19T07:49:55.246Z,3.23
2018-07-19T07:52:23.411Z,3.33
2018-07-19T07:54:51.691Z,3.90
2018-07-19T07:57:19.916Z,3.63
2018-07-19T07:59:48.137Z,3.43
2018-07-19T08:02:16.385Z,3.70
2018-07-19T08:04:44.759Z,3.83
2018-07-19T08:07:13.097Z,3.70
2018-07-19T08:09:41.309Z,3.93
2018-07-19T08:12:09.587Z,3.80
2018-07-19T08:14:38.865Z,3.33
2018-07-19T08:17:07.255Z,3.63
2018-07-19T08:19:35.485Z,3.27
2018-07-19T08:22:03.683Z,3.70
2018-07-19T08:24:31.943Z,3.80
2018-07-19T08:27:00.407Z,3.80
2018-07-19T08:29:28.630Z,3.93
2018-07-19T08:31:56.867Z,4.13
2018-07-19T08:34:25.140Z,3.20
2018-07-19T08:36:53.388Z,3.70
2018-07-19T08:39:21.609Z,4.00
2018-07-19T08:41:49.802Z,3.90
2018-07-19T08:44:18.145Z,3.83
2018-07-19T08:46:46.348Z,3.77
2018-07-19T08:49:14.662Z,3.70
2018-07-19T08:51:42.894Z,3.97
2018-07-19T08:54:11.030Z,4.07
2018-07-19T08:56:39.268Z,3.97
2018-07-19T08:59:07.499Z,4.50
2018-07-19T09:01:35.676Z,4.57
2018-07-19T09:04:04.185Z,4.53
2018-07-19T09:06:32.381Z,4.07
2018-07-19T09:09:00.703Z,4.13
2018-07-19T09:11:28.929Z,4.83
2018-07-19T09:13:57.288Z,5.33
2018-07-19T09:16:25.680Z,3.93
2018-07-19T09:18:53.880Z,4.27
2018-07-19T09:21:22.101Z,4.83
2018-07-19T09:23:50.306Z,4.47
2018-07-19T09:26:18.481Z,5.00
2018-07-19T09:28:46.707Z,5.10
2018-07-19T09:31:14.963Z,4.77
2018-07-19T09:33:43.158Z,4.73
2018-07-19T09:36:11.392Z,4.80
2018-07-19T09:38:39.608Z,5.03
2018-07-19T09:41:07.809Z,5.20
2018-07-19T09:43:36.162Z,5.20
2018-07-19T09:46:04.452Z,5.60
2018-07-19T09:48:32.792Z,5.47
2018-07-19T09:51:00.963Z,6.13
2018-07-19T09:53:29.217Z,5.20
2018-07-19T09:55:57.653Z,5.80
2018-07-19T09:58:25.817Z,5.73
2018-07-19T10:00:59.355Z,5.47
2018-07-19T10:03:27.540Z,5.90
2018-07-19T10:05:55.759Z,5.90
2018-07-19T10:08:24.042Z,6.80
2018-07-19T10:10:52.400Z,6.00
2018-07-19T10:13:20.713Z,5.90
2018-07-19T10:15:49.053Z,5.37
2018-07-19T10:18:17.293Z,6.70
2018-07-19T10:20:45.304Z,6.50
2018-07-19T10:23:14.791Z,6.20
2018-07-19T10:25:44.044Z,7.23
2018-07-19T10:28:12.313Z,6.13
2018-07-19T10:30:40.490Z,6.10
2018-07-19T10:33:08.695Z,5.80
2018-07-19T10:35:37.094Z,6.20
2018-07-19T10:38:05.333Z,5.83
2018-07-19T10:40:33.288Z,6.57
2018-07-19T10:43:01.426Z,6.10
2018-07-19T10:45:29.812Z,6.00
2018-07-19T10:47:58.012Z,6.20
2018-07-19T10:50:26.205Z,6.40
2018-07-19T10:52:54.445Z,4.87
2018-07-19T10:55:22.781Z,6.77
2018-07-19T10:57:50.995Z,5.40
2018-07-19T11:00:19.172Z,4.83
2018-07-19T11:02:47.442Z,6.40
2018-07-19T11:05:16.639Z,5.17
2018-07-19T11:07:44.815Z,6.07
2018-07-19T11:10:13.005Z,6.13
2018-07-19T11:12:41.200Z,5.40
2018-07-19T11:15:09.197Z,4.83
2018-07-19T11:17:37.350Z,5.90
2018-07-19T11:20:05.287Z,5.50
2018-07-19T11:22:33.489Z,5.47
2018-07-19T11:25:01.825Z,4.30
2018-07-19T11:27:30.036Z,5.07
2018-07-19T11:29:58.049Z,6.20
2018-07-19T11:32:26.210Z,5.70
2018-07-19T11:34:54.590Z,5.17
2018-07-19T11:37:22.762Z,4.90
2018-07-19T11:39:50.989Z,5.43
2018-07-19T11:42:19.290Z,5.33
2018-07-19T11:44:47.593Z,5.33
2018-07-19T11:47:15.868Z,4.77
2018-07-19T11:49:44.078Z,5.00
2018-07-19T11:52:12.330Z,4.37
2018-07-19T11:54:40.666Z,4.80
2018-07-19T11:57:08.841Z,4.50
2018-07-19T11:59:37.090Z,5.43
2018-07-19T12:02:05.453Z,4.73
2018-07-19T12:04:34.788Z,4.40
2018-07-19T12:07:03.015Z,3.80
2018-07-19T12:09:31.201Z,4.40
2018-07-19T12:11:59.461Z,4.13
2018-07-19T12:14:27.757Z,4.00
2018-07-19T12:16:56.016Z,3.83
2018-07-19T12:19:24.355Z,3.50
2018-07-19T12:21:52.572Z,4.07
2018-07-19T12:24:20.792Z,3.07
2018-07-19T12:26:49.036Z,3.70
2018-07-19T12:29:17.184Z,3.37
2018-07-19T12:31:45.968Z,2.83
2018-07-19T12:35:50.167Z,3.03
2018-07-19T12:38:18.424Z,2.83
2018-07-19T12:40:46.733Z,2.80
2018-07-19T12:43:14.976Z,3.07
2018-07-19T12:45:43.572Z,3.33
2018-07-19T12:48:11.880Z,3.63
2018-07-19T12:50:40.210Z,3.30
2018-07-19T12:53:08.456Z,2.93
2018-07-19T12:55:36.535Z,2.80
2018-07-19T12:58:04.768Z,3.47
2018-07-19T13:00:33.428Z,4.20
2018-07-19T13:03:01.660Z,2.40
2018-07-19T13:05:29.890Z,2.43
2018-07-19T13:07:58.082Z,2.40
2018-07-19T13:10:26.255Z,2.90
2018-07-19T13:12:54.463Z,2.50
2018-07-19T13:15:22.601Z,2.60
2018-07-19T13:17:50.817Z,3.10
2018-07-19T13:20:19.204Z,2.40
2018-07-19T13:22:47.411Z,2.33
2018-07-19T13:25:15.721Z,2.20
2018-07-19T13:27:43.973Z,2.73
2018-07-19T13:30:12.189Z,3.17
2018-07-19T13:32:40.435Z,2.70
2018-07-19T13:35:08.836Z,3.17
2018-07-19T13:37:37.053Z,2.20
2018-07-19T13:40:05.242Z,2.60
2018-07-19T13:42:33.441Z,2.70
2018-07-19T13:45:01.656Z,2.30
2018-07-19T13:47:29.885Z,2.20
2018-07-19T13:49:58.109Z,2.53
2018-07-19T13:52:37.888Z,3.23
2018-07-19T13:55:06.277Z,2.20
2018-07-19T13:57:34.483Z,3.13
2018-07-19T14:00:02.834Z,2.67
2018-07-19T14:02:31.000Z,2.27
2018-07-19T14:04:59.050Z,2.60
2018-07-19T14:07:27.324Z,2.60
2018-07-19T14:09:55.485Z,2.50
2018-07-19T14:12:23.719Z,2.43
2018-07-19T14:14:52.011Z,2.70
2018-07-19T14:17:20.207Z,2.50
2018-07-19T14:19:48.448Z,2.40
2018-07-19T14:22:16.726Z,2.10
2018-07-19T14:24:45.105Z,2.10
2018-07-19T14:27:13.286Z,2.40
2018-07-19T14:29:41.535Z,2.10
2018-07-19T14:32:09.811Z,2.00
2018-07-19T14:34:38.079Z,2.27
2018-07-19T14:37:06.327Z,2.10
2018-07-19T14:39:34.477Z,2.17
2018-07-19T14:42:02.797Z,2.23
2018-07-19T14:44:31.143Z,1.33
2018-07-19T14:46:59.389Z,1.90
2018-07-19T14:49:27.636Z,1.80
2018-07-19T14:51:55.583Z,1.90
2018-07-19T14:54:23.863Z,2.20
2018-07-19T14:56:52.151Z,1.60
2018-07-19T14:59:20.352Z,1.40
2018-07-19T15:01:48.524Z,1.60
2018-07-19T15:04:16.997Z,1.73
2018-07-19T15:06:45.207Z,1.80
2018-07-19T15:09:13.396Z,1.47
2018-07-19T15:11:41.656Z,1.47
2018-07-19T15:14:10.043Z,1.60
2018-07-19T15:16:38.284Z,1.10
2018-07-19T15:19:06.538Z,1.37
2018-07-19T15:21:34.762Z,1.30
2018-07-19T15:24:03.171Z,1.50
2018-07-19T15:26:31.401Z,1.37
2018-07-19T15:28:59.630Z,1.90
2018-07-19T15:31:27.825Z,1.47
2018-07-19T15:33:56.185Z,1.57
2018-07-19T15:36:24.478Z,1.70
2018-07-19T15:38:52.690Z,1.50
2018-07-19T15:41:20.971Z,1.60
2018-07-19T15:43:49.515Z,1.70
2018-07-19T15:46:17.708Z,1.93
2018-07-19T15:48:45.958Z,1.90
2018-07-19T15:51:14.233Z,3.53
2018-07-19T15:53:42.481Z,2.10
2018-07-19T15:56:10.703Z,1.37
2018-07-19T15:58:38.874Z,1.30
2018-07-19T16:01:07.166Z,1.30
2018-07-19T16:03:35.402Z,1.50
2018-07-19T16:06:03.613Z,4.23
2018-07-19T16:08:31.842Z,3.27
2018-07-19T16:11:00.041Z,1.90
2018-07-19T16:13:28.675Z,2.17
2018-07-19T16:15:56.892Z,4.93
2018-07-19T16:18:25.087Z,3.50
2018-07-19T16:20:53.326Z,3.00
2018-07-19T16:23:21.544Z,2.10
2018-07-19T16:25:49.861Z,2.57
2018-07-19T16:28:18.364Z,2.27
2018-07-19T16:30:46.677Z,2.40
2018-07-19T16:33:14.959Z,2.57
2018-07-19T16:35:44.321Z,2.43
2018-07-19T16:38:12.472Z,2.60
2018-07-19T16:40:40.673Z,2.23
2018-07-19T16:43:08.872Z,2.90
2018-07-19T16:45:37.218Z,2.73
2018-07-19T16:48:05.522Z,2.90
2018-07-19T16:50:33.703Z,3.20
2018-07-19T16:53:01.866Z,4.27
2018-07-19T16:55:31.160Z,2.93
2018-07-19T16:57:59.415Z,2.73
2018-07-19T17:00:27.625Z,2.40
2018-07-19T17:02:55.636Z,2.47
2018-07-19T17:05:24.028Z,2.87
2018-07-19T17:07:52.247Z,3.40
2018-07-19T17:10:20.441Z,3.13
2018-07-19T17:12:48.678Z,3.47
2018-07-19T17:15:16.878Z,3.07
2018-07-19T17:17:45.084Z,3.00
2018-07-19T17:20:13.284Z,3.30
2018-07-19T17:22:41.481Z,3.03
2018-07-19T17:25:09.708Z,2.70
2018-07-19T17:27:37.982Z,3.00
2018-07-19T17:30:06.595Z,3.00
2018-07-19T17:32:34.891Z,2.73
2018-07-19T17:35:03.106Z,2.50
2018-07-19T17:37:31.275Z,2.77
2018-07-19T17:39:59.515Z,2.60
2018-07-19T17:42:27.684Z,2.90
2018-07-19T17:44:55.709Z,2.50
2018-07-19T17:47:24.264Z,2.80
2018-07-19T17:49:52.728Z,2.60
2018-07-19T17:52:20.973Z,2.50
2018-07-19T17:54:49.286Z,2.63
2018-07-19T17:57:17.476Z,2.63
2018-07-19T17:59:45.753Z,2.50
2018-07-19T18:02:13.905Z,2.60
2018-07-19T18:04:42.216Z,2.10
2018-07-19T18:07:10.426Z,2.43
2018-07-19T18:09:38.612Z,2.23
2018-07-19T18:12:06.861Z,2.60
2018-07-19T18:14:35.157Z,2.60
2018-07-19T18:17:03.368Z,2.10
2018-07-19T18:19:31.670Z,2.47
2018-07-19T18:21:59.857Z,2.73
2018-07-19T18:24:29.229Z,2.80
2018-07-19T18:26:57.525Z,2.20
2018-07-19T18:29:25.771Z,2.00
2018-07-19T18:31:53.977Z,2.30
2018-07-19T18:34:22.340Z,2.43
2018-07-19T18:36:50.574Z,2.70
2018-07-19T18:39:18.522Z,2.40
2018-07-19T18:41:46.727Z,3.10
2018-07-19T18:44:15.015Z,2.57
2018-07-19T18:46:43.234Z,2.40
2018-07-19T18:49:11.429Z,2.30
2018-07-19T18:51:39.615Z,2.30
2018-07-19T18:54:07.622Z,2.10
2018-07-19T18:56:35.928Z,2.10
2018-07-19T18:59:04.186Z,2.50
2018-07-19T19:01:32.447Z,3.20
2018-07-19T19:04:00.843Z,2.43
2018-07-19T19:06:29.124Z,2.43
2018-07-19T19:08:57.294Z,2.53
2018-07-19T19:11:25.561Z,2.60
2018-07-19T19:13:53.798Z,2.40
2018-07-19T19:16:21.995Z,2.30
2018-07-19T19:18:50.234Z,2.50
2018-07-19T19:21:18.436Z,2.80
2018-07-19T19:23:46.632Z,2.53
2018-07-19T19:26:14.873Z,2.40
2018-07-19T19:28:43.255Z,16.90
2018-07-19T19:31:11.502Z,2.60
2018-07-19T19:33:39.727Z,2.77
2018-07-19T19:36:08.040Z,4.47
2018-07-19T19:38:36.256Z,9.40
2018-07-19T19:41:04.482Z,4.47
2018-07-19T19:43:32.677Z,6.87
2018-07-19T19:46:00.970Z,3.00
2018-07-19T19:48:32.521Z,3.57
2018-07-19T19:51:00.712Z,3.90
2018-07-19T19:53:29.034Z,7.80
2018-07-19T19:55:57.376Z,10.43
2018-07-19T19:58:25.576Z,5.53
2018-07-19T20:00:53.820Z,28.23
2018-07-19T20:03:22.048Z,19.33
2018-07-19T20:05:50.407Z,40.87
2018-07-19T20:08:18.713Z,39.83
2018-07-19T20:10:47.164Z,25.13
2018-07-19T20:13:15.494Z,10.37
2018-07-19T20:15:43.877Z,6.80
2018-07-19T20:18:12.144Z,6.90
2018-07-19T20:20:40.551Z,4.80
2018-07-19T20:23:08.876Z,9.30
2018-07-19T20:25:37.209Z,8.73
2018-07-19T20:28:05.463Z,6.60
2018-07-19T20:30:33.639Z,3.03
2018-07-19T20:33:01.808Z,2.60
2018-07-19T20:35:30.118Z,2.63
2018-07-19T20:37:58.096Z,2.60
2018-07-19T20:40:26.311Z,2.30
2018-07-19T20:42:54.557Z,2.77
2018-07-19T20:45:22.808Z,2.43
2018-07-19T20:47:51.040Z,3.00
2018-07-19T20:50:19.281Z,3.00
2018-07-19T20:52:47.484Z,2.63
2018-07-19T20:55:15.913Z,2.50
2018-07-19T20:57:44.165Z,2.80
2018-07-19T21:00:12.443Z,2.90
2018-07-19T21:02:40.909Z,2.60
2018-07-19T21:05:09.247Z,2.80
2018-07-19T21:07:37.572Z,2.87
2018-07-19T21:10:05.872Z,2.97
2018-07-19T21:12:34.098Z,3.00
2018-07-19T21:15:02.593Z,2.57
2018-07-19T21:17:30.804Z,3.30
2018-07-19T21:19:59.216Z,3.13
2018-07-19T21:22:27.416Z,2.70
2018-07-19T21:24:55.871Z,2.90
2018-07-19T21:27:24.159Z,2.70
2018-07-19T21:29:52.739Z,2.70
2018-07-19T21:32:21.131Z,2.77
2018-07-19T21:34:49.538Z,2.60
2018-07-19T21:37:17.780Z,2.60
2018-07-19T21:39:46.004Z,3.17
2018-07-19T21:42:14.239Z,2.67
2018-07-19T21:44:42.689Z,3.57
2018-07-19T21:47:10.994Z,3.03
2018-07-19T21:49:39.226Z,3.40
2018-07-19T21:52:07.442Z,3.07
2018-07-19T21:54:35.660Z,3.37
2018-07-19T21:57:03.938Z,3.03
2018-07-19T21:59:31.898Z,2.83
2018-07-19T22:02:00.134Z,2.87
2018-07-19T22:04:28.409Z,3.00
2018-07-19T22:06:56.669Z,3.13
2018-07-19T22:09:24.888Z,3.00
2018-07-19T22:12:05.965Z,3.17
2018-07-19T22:14:34.224Z,3.10
2018-07-19T22:17:02.492Z,2.87
2018-07-19T22:19:31.794Z,3.83
2018-07-19T22:22:00.059Z,3.10
2018-07-19T22:24:28.420Z,3.40
2018-07-19T22:26:56.727Z,3.17
2018-07-19T22:29:25.997Z,3.20
2018-07-19T22:31:54.243Z,3.17
2018-07-19T22:34:22.493Z,3.07
2018-07-19T22:36:50.786Z,3.40
2018-07-19T22:39:19.029Z,3.10
2018-07-19T22:41:47.244Z,3.37
2018-07-19T22:44:15.597Z,3.33
2018-07-19T22:46:43.810Z,3.17
2018-07-19T22:49:12.005Z,3.27
2018-07-19T22:51:40.186Z,3.57
2018-07-19T22:54:09.526Z,3.50
2018-07-19T22:56:37.752Z,3.77
2018-07-19T22:59:06.059Z,3.30
2018-07-19T23:01:34.318Z,3.40
2018-07-19T23:04:03.312Z,3.53
2018-07-19T23:06:31.549Z,3.83
2018-07-19T23:08:59.801Z,3.40
2018-07-19T23:11:28.080Z,4.20
2018-07-19T23:13:56.576Z,3.90
2018-07-19T23:16:24.821Z,3.73
2018-07-19T23:18:54.267Z,3.57
2018-07-19T23:21:22.474Z,4.43
2018-07-19T23:23:50.876Z,3.90
2018-07-19T23:26:19.132Z,4.00
2018-07-19T23:28:48.115Z,3.67
2018-07-19T23:31:16.313Z,3.90
2018-07-19T23:33:44.567Z,3.60
2018-07-19T23:36:20.077Z,4.20
2018-07-19T23:38:53.556Z,4.00
2018-07-19T23:41:35.736Z,3.97
2018-07-19T23:44:08.343Z,4.40
2018-07-19T23:46:47.708Z,4.43
2018-07-19T23:49:15.925Z,3.67
2018-07-19T23:51:44.107Z,4.63
2018-07-19T23:54:12.314Z,4.10
2018-07-19T23:56:40.488Z,4.47
2018-07-19T23:59:08.741Z,4.80
